Time;durP1;ratioP1;P1;durP2;ratioP2;P2;SDS_P1;SDS_P2;PMS_P1;PMS_P2;Temp;Humidity;BMP_temperature;BMP_pressure;BME280_temperature;BME280_humidity;BME280_pressure;Samples;Min_cycle;Max_cycle;Signal;HPM_P1;HPM_P2
2023/03/03 00:01:26;;;;;;;;;46.00;36.50;;;;;7.91;59.40;100839.97;5037894;28;46127;-71
2023/03/03 00:03:52;;;;;;;;;41.75;37.50;;;;;7.90;59.57;100833.00;5022770;28;45482;-71
2023/03/03 00:06:18;;;;;;;;;35.25;32.00;;;;;7.92;59.47;100836.56;5033570;28;45672;-71
2023/03/03 00:08:43;;;;;;;;;42.75;38.75;;;;;7.95;59.78;100841.88;5041429;28;45898;-71
2023/03/03 00:11:09;;;;;;;;;39.75;34.50;;;;;7.99;59.85;100850.72;5026927;28;46329;-71
2023/03/03 00:13:44;;;;;;;;;37.00;35.00;;;;;7.98;59.80;100847.25;5018513;28;45550;-71
2023/03/03 00:16:34;;;;;;;;;37.75;32.50;;;;;7.92;59.70;100840.03;5022746;28;45369;-72
2023/03/03 00:19:00;;;;;;;;;44.75;36.75;;;;;7.89;59.56;100831.22;5038127;28;45398;-71
2023/03/03 00:21:32;;;;;;;;;37.75;35.00;;;;;7.95;59.39;100845.38;5037963;28;46286;-71
2023/03/03 00:24:12;;;;;;;;;37.25;35.25;;;;;7.84;59.14;100823.22;5019572;28;45698;-71
2023/03/03 00:26:41;;;;;;;;;41.75;38.25;;;;;7.65;59.29;100795.47;5027974;28;45699;-72
2023/03/03 00:29:43;;;;;;;;;42.25;38.00;;;;;7.94;59.18;100841.00;5038061;28;45415;-72
2023/03/03 00:32:40;;;;;;;;;38.25;35.25;;;;;7.91;59.31;100835.66;5018141;28;45879;-72
2023/03/03 00:35:29;;;;;;;;;38.75;36.00;;;;;7.92;59.07;100839.16;5033265;28;45615;-71
2023/03/03 00:38:00;;;;;;;;;36.75;34.75;;;;;7.82;59.18;100829.13;5018362;28;45403;-72
2023/03/03 00:40:38;;;;;;;;;39.50;35.00;;;;;7.86;59.18;100844.06;5028989;28;45484;-72
2023/03/03 00:43:26;;;;;;;;;39.00;35.75;;;;;7.85;59.23;100844.91;5037299;28;46575;-71
2023/03/03 00:45:56;;;;;;;;;39.75;36.00;;;;;7.83;59.05;100844.81;5040958;28;45389;-72
2023/03/03 00:48:27;;;;;;;;;38.25;34.25;;;;;7.80;59.28;100841.19;5036762;28;45483;-72
2023/03/03 00:50:57;;;;;;;;;39.50;33.25;;;;;7.79;59.59;100844.63;5036906;28;45291;-71
2023/03/03 00:53:25;;;;;;;;;43.50;38.00;;;;;7.72;59.71;100838.25;5030487;28;45375;-72
2023/03/03 00:55:52;;;;;;;;;37.75;34.75;;;;;7.64;60.34;100831.78;5020042;28;45426;-72
2023/03/03 00:58:20;;;;;;;;;39.00;35.75;;;;;7.71;60.28;100839.94;5017261;28;45486;-72
2023/03/03 01:00:50;;;;;;;;;38.75;36.00;;;;;7.60;60.03;100820.38;5027273;28;45340;-71
2023/03/03 01:03:21;;;;;;;;;35.50;33.75;;;;;7.70;59.83;100838.19;5037235;28;45556;-72
2023/03/03 01:05:48;;;;;;;;;38.50;34.50;;;;;7.57;60.07;100821.09;5017599;28;45403;-72
2023/03/03 01:08:14;;;;;;;;;41.75;35.75;;;;;7.67;60.20;100835.41;5020735;28;45500;-72
2023/03/03 01:10:47;;;;;;;;;35.25;32.25;;;;;7.65;59.94;100826.66;5027812;28;45402;-72
2023/03/03 01:13:13;;;;;;;;;37.25;34.50;;;;;7.64;59.74;100819.69;5020534;28;46130;-71
2023/03/03 01:15:39;;;;;;;;;40.25;34.00;;;;;7.65;60.18;100824.06;5037042;28;45527;-72
2023/03/03 01:18:06;;;;;;;;;38.50;35.50;;;;;7.57;60.02;100813.31;5053032;28;45414;-72
2023/03/03 01:20:32;;;;;;;;;35.25;34.25;;;;;7.46;61.10;100809.34;5025195;28;45465;-72
2023/03/03 01:22:57;;;;;;;;;40.75;38.50;;;;;7.43;61.19;100823.91;5024406;28;47706;-72
2023/03/03 01:25:23;;;;;;;;;41.00;35.25;;;;;7.49;61.78;100832.84;5036870;28;45231;-72
2023/03/03 01:27:48;;;;;;;;;42.50;38.00;;;;;7.35;61.77;100810.53;5052144;28;45517;-72
2023/03/03 01:30:14;;;;;;;;;40.25;35.75;;;;;7.34;61.09;100811.34;5033908;28;45476;-71
2023/03/03 01:32:40;;;;;;;;;42.25;38.00;;;;;7.34;60.82;100804.44;5017366;28;45442;-72
2023/03/03 01:35:06;;;;;;;;;38.75;36.75;;;;;7.42;61.25;100816.91;5028759;28;45501;-72
2023/03/03 01:37:34;;;;;;;;;42.25;36.75;;;;;7.43;61.56;100819.56;5033042;28;46631;-72
2023/03/03 01:40:01;;;;;;;;;40.00;37.00;;;;;7.46;61.53;100821.41;5017647;28;45453;-72
2023/03/03 01:42:28;;;;;;;;;39.75;34.50;;;;;7.41;61.82;100815.13;5016635;28;46583;-72
2023/03/03 01:45:31;;;;;;;;;38.25;35.00;;;;;7.43;61.70;100821.28;5016913;28;45304;-72
2023/03/03 01:48:13;;;;;;;;;32.75;30.00;;;;;7.45;61.09;100819.66;4996479;28;45457;-72
2023/03/03 01:51:04;;;;;;;;;39.75;36.75;;;;;7.47;60.67;100813.69;5027674;28;45719;-72
2023/03/03 01:53:36;;;;;;;;;38.00;33.75;;;;;7.51;60.70;100818.22;5036519;28;46431;-71
2023/03/03 01:56:04;;;;;;;;;30.25;28.00;;;;;7.43;60.79;100797.91;5020401;28;45450;-72
2023/03/03 01:58:36;;;;;;;;;40.25;35.75;;;;;7.51;60.90;100812.13;5015674;28;45698;-72
2023/03/03 02:01:08;;;;;;;;;29.50;28.00;;;;;7.53;60.56;100813.09;5032846;28;45543;-72
2023/03/03 02:03:34;;;;;;;;;34.00;32.50;;;;;7.44;60.69;100791.88;5022859;28;45508;-72
2023/03/03 02:06:05;;;;;;;;;33.75;30.75;;;;;7.49;61.18;100803.38;5047986;28;45510;-72
2023/03/03 02:08:40;;;;;;;;;37.50;33.00;;;;;7.45;61.67;100811.84;5022986;28;45344;-72
2023/03/03 02:11:05;;;;;;;;;41.50;37.75;;;;;7.18;62.17;100775.94;5036781;28;45532;-72
2023/03/03 02:13:31;;;;;;;;;40.50;36.25;;;;;7.21;62.38;100780.41;5021097;28;45539;-72
2023/03/03 02:15:57;;;;;;;;;40.50;37.00;;;;;7.24;61.83;100786.66;5016311;28;45430;-71
2023/03/03 02:18:23;;;;;;;;;37.75;33.25;;;;;7.31;61.99;100801.69;5023349;28;45440;-71
2023/03/03 02:21:14;;;;;;;;;42.50;37.25;;;;;7.24;62.90;100790.94;5036569;28;45525;-71
2023/03/03 02:24:11;;;;;;;;;38.25;36.50;;;;;7.14;62.48;100772.34;5023034;28;46286;-71
2023/03/03 02:26:40;;;;;;;;;41.00;37.25;;;;;7.29;62.18;100794.66;5018063;28;45493;-71
2023/03/03 02:29:06;;;;;;;;;44.75;39.25;;;;;7.32;62.14;100803.50;5027065;28;45827;-71
2023/03/03 02:31:32;;;;;;;;;43.25;39.00;;;;;7.34;62.27;100809.66;5036845;28;45537;-71
2023/03/03 02:33:58;;;;;;;;;44.25;37.25;;;;;7.32;61.51;100795.69;5018175;28;46098;-71
2023/03/03 02:36:33;;;;;;;;;49.50;40.00;;;;;7.31;61.01;100799.09;5022344;28;45333;-71
2023/03/03 02:39:03;;;;;;;;;43.50;38.00;;;;;7.30;61.20;100799.94;5025191;28;45323;-71
2023/03/03 02:41:34;;;;;;;;;39.25;32.25;;;;;7.29;60.79;100792.94;5030641;28;45521;-71
2023/03/03 02:44:06;;;;;;;;;40.00;37.00;;;;;7.32;61.09;100790.50;5019961;28;46458;-71
2023/03/03 02:46:37;;;;;;;;;40.25;33.50;;;;;7.31;61.88;100793.91;5026448;28;45324;-71
2023/03/03 02:49:04;;;;;;;;;46.25;39.00;;;;;7.28;61.36;100782.47;5034234;28;45452;-71
2023/03/03 02:51:30;;;;;;;;;50.25;40.00;;;;;7.27;61.64;100773.78;5018023;28;45358;-71
2023/03/03 02:53:55;;;;;;;;;45.25;39.25;;;;;7.35;61.47;100784.53;5022174;28;45401;-72
2023/03/03 02:56:21;;;;;;;;;45.00;37.75;;;;;7.27;60.99;100771.19;5025802;28;45394;-72
2023/03/03 02:58:47;;;;;;;;;40.50;38.50;;;;;7.19;61.28;100749.16;5016499;28;45320;-72
2023/03/03 03:01:12;;;;;;;;;43.25;38.25;;;;;7.42;61.37;100785.72;5033073;28;45533;-72
2023/03/03 03:03:38;;;;;;;;;41.75;37.00;;;;;7.30;61.90;100763.56;5020741;28;47591;-72
2023/03/03 03:06:04;;;;;;;;;41.00;37.50;;;;;7.35;61.78;100759.44;5025113;28;45475;-71
2023/03/03 03:08:29;;;;;;;;;46.25;38.25;;;;;7.38;61.67;100766.47;5029407;28;45655;-71
2023/03/03 03:10:56;;;;;;;;;52.00;38.25;;;;;7.32;61.72;100761.91;5051893;28;45326;-72
2023/03/03 03:13:23;;;;;;;;;42.25;38.75;;;;;7.31;61.24;100749.72;5034189;28;45432;-72
2023/03/03 03:15:49;;;;;;;;;50.50;41.75;;;;;7.31;61.48;100752.31;5028503;28;45597;-72
2023/03/03 03:18:15;;;;;;;;;49.75;41.00;;;;;7.34;61.72;100773.28;5037376;28;45265;-72
2023/03/03 03:20:41;;;;;;;;;38.00;35.00;;;;;7.15;61.70;100744.63;5037682;28;45414;-72
2023/03/03 03:23:08;;;;;;;;;44.75;39.50;;;;;7.32;61.43;100768.78;5027107;28;46380;-72
2023/03/03 03:25:33;;;;;;;;;45.00;39.00;;;;;7.32;61.58;100774.00;5039426;28;45521;-72
2023/03/03 03:27:59;;;;;;;;;42.50;37.50;;;;;7.10;62.13;100740.91;5036946;28;45914;-72
2023/03/03 03:30:25;;;;;;;;;46.50;38.50;;;;;7.27;62.06;100776.38;5019463;28;46505;-71
2023/03/03 03:32:50;;;;;;;;;46.50;39.75;;;;;7.22;62.45;100770.09;5027722;28;45467;-71
2023/03/03 03:35:16;;;;;;;;;48.25;40.00;;;;;7.23;62.61;100774.47;5038319;28;45535;-72
2023/03/03 03:37:42;;;;;;;;;47.00;39.75;;;;;7.28;62.03;100775.59;5053929;28;45268;-72
2023/03/03 03:40:09;;;;;;;;;42.50;38.00;;;;;7.32;62.20;100780.09;5049381;28;45304;-72
2023/03/03 03:42:36;;;;;;;;;48.00;39.00;;;;;7.33;62.06;100776.66;5018855;28;45588;-72
2023/03/03 03:45:02;;;;;;;;;42.00;39.00;;;;;7.32;62.08;100780.09;5031889;28;45306;-72
2023/03/03 03:47:27;;;;;;;;;46.00;37.25;;;;;7.28;62.28;100767.78;5037489;28;45365;-73
2023/03/03 03:49:53;;;;;;;;;36.75;33.00;;;;;7.33;62.58;100779.28;5019164;28;45296;-72
2023/03/03 03:52:18;;;;;;;;;48.00;39.25;;;;;7.35;62.27;100781.94;5018399;28;45802;-72
2023/03/03 03:54:44;;;;;;;;;43.75;39.50;;;;;7.32;62.67;100780.09;5031618;28;45454;-72
2023/03/03 03:57:09;;;;;;;;;43.75;37.50;;;;;7.27;62.85;100767.72;5038359;28;45515;-72
2023/03/03 03:59:35;;;;;;;;;49.25;40.25;;;;;7.28;62.60;100773.00;5038655;28;45223;-72
2023/03/03 04:02:00;;;;;;;;;42.25;37.25;;;;;7.27;62.12;100754.72;5038261;28;46174;-71
2023/03/03 04:04:26;;;;;;;;;46.50;39.50;;;;;7.36;62.34;100771.63;5037964;28;45537;-72
2023/03/03 04:06:51;;;;;;;;;36.75;34.75;;;;;7.31;62.60;100760.13;5038077;28;45791;-72
2023/03/03 04:09:17;;;;;;;;;44.00;35.75;;;;;7.37;62.17;100770.78;5019047;28;45308;-72
2023/03/03 04:11:42;;;;;;;;;41.50;37.25;;;;;7.28;62.05;100749.59;5025892;28;46313;-72
2023/03/03 04:14:08;;;;;;;;;32.75;32.75;;;;;7.29;62.33;100758.28;5034687;28;45538;-72
2023/03/03 04:16:34;;;;;;;;;41.00;34.75;;;;;7.21;62.23;100738.84;5031297;28;45482;-72
2023/03/03 04:18:59;;;;;;;;;37.25;34.00;;;;;7.28;62.46;100756.47;5033523;28;45255;-72
2023/03/03 04:21:26;;;;;;;;;38.00;33.75;;;;;7.19;64.28;100762.16;5034214;28;46134;-72
2023/03/03 04:23:52;;;;;;;;;39.75;36.25;;;;;7.12;64.14;100749.69;5017149;28;45505;-72
2023/03/03 04:26:18;;;;;;;;;44.00;39.75;;;;;7.16;65.31;100772.38;5035957;28;45510;-72
2023/03/03 04:28:44;;;;;;;;;45.25;40.25;;;;;6.96;64.73;100748.06;5025145;28;45415;-72
2023/03/03 04:31:10;;;;;;;;;46.00;39.25;;;;;7.05;64.77;100758.03;5017947;28;45689;-72
2023/03/03 04:33:35;;;;;;;;;41.25;37.00;;;;;7.05;64.79;100765.81;5036157;28;45406;-71
2023/03/03 04:36:01;;;;;;;;;46.50;39.00;;;;;7.05;64.70;100755.41;5022091;28;45232;-71
2023/03/03 04:38:26;;;;;;;;;45.50;36.75;;;;;7.04;64.08;100753.63;5022784;28;45555;-72
2023/03/03 04:40:52;;;;;;;;;41.00;36.75;;;;;7.10;63.96;100756.50;5021600;28;45340;-72
2023/03/03 04:43:17;;;;;;;;;39.25;36.00;;;;;7.05;65.74;100764.09;5053546;28;45406;-71
2023/03/03 04:45:43;;;;;;;;;45.25;39.50;;;;;7.01;64.62;100761.28;5037805;28;45473;-72
2023/03/03 04:48:09;;;;;;;;;40.25;37.00;;;;;7.08;64.61;100778.94;5022984;28;45488;-71
2023/03/03 04:50:34;;;;;;;;;47.25;41.00;;;;;7.02;64.64;100757.84;5020332;28;45569;-72
2023/03/03 04:53:00;;;;;;;;;342.75;279.50;;;;;7.00;64.19;100751.69;5037564;28;45544;-71
2023/03/03 04:55:25;;;;;;;;;72.25;58.00;;;;;7.08;63.99;100752.94;5026982;28;45352;-72
2023/03/03 04:57:51;;;;;;;;;64.50;51.50;;;;;7.05;64.79;100748.50;5017946;28;45364;-72
2023/03/03 05:00:17;;;;;;;;;46.50;42.00;;;;;6.97;64.35;100732.56;5018755;28;45944;-71
2023/03/03 05:02:42;;;;;;;;;55.25;44.75;;;;;6.98;65.28;100756.81;5037185;28;45494;-71
2023/03/03 05:05:09;;;;;;;;;49.00;41.00;;;;;6.86;64.10;100725.06;5027282;28;45328;-71
2023/03/03 05:07:35;;;;;;;;;56.00;46.25;;;;;6.92;64.67;100730.56;5048109;28;45518;-72
2023/03/03 05:10:00;;;;;;;;;53.75;44.00;;;;;7.08;64.78;100753.88;5033574;28;46717;-72
2023/03/03 05:12:26;;;;;;;;;41.50;39.25;;;;;6.97;64.38;100735.16;5017195;28;45579;-71
2023/03/03 05:14:52;;;;;;;;;45.50;38.50;;;;;7.02;64.93;100739.69;5027341;28;46288;-71
2023/03/03 05:17:17;;;;;;;;;39.75;36.25;;;;;7.08;64.51;100752.94;5037651;28;45517;-71
2023/03/03 05:19:43;;;;;;;;;42.50;38.50;;;;;7.09;65.08;100758.22;5019013;28;45692;-72
2023/03/03 05:22:09;;;;;;;;;41.75;38.75;;;;;7.12;65.80;100754.88;5022431;28;45507;-71
2023/03/03 05:24:35;;;;;;;;;35.50;32.75;;;;;7.04;64.50;100740.63;5019208;28;45325;-71
2023/03/03 05:27:02;;;;;;;;;42.50;37.75;;;;;7.03;64.20;100733.69;5030632;28;46767;-72
2023/03/03 05:29:30;;;;;;;;;39.75;35.25;;;;;7.03;64.40;100744.94;5025392;28;46583;-72
2023/03/03 05:31:56;;;;;;;;;41.00;38.00;;;;;7.09;65.56;100750.44;5036973;28;45335;-71
2023/03/03 05:34:22;;;;;;;;;42.50;38.25;;;;;7.08;65.58;100759.06;5020370;28;45497;-72
2023/03/03 05:36:48;;;;;;;;;49.25;41.00;;;;;6.95;66.27;100741.09;5053152;28;45469;-71
2023/03/03 05:39:13;;;;;;;;;41.75;36.00;;;;;7.09;65.39;100772.94;5036993;28;46321;-71
2023/03/03 05:41:39;;;;;;;;;48.25;39.25;;;;;7.08;66.53;100765.94;5037074;28;45503;-72
2023/03/03 05:44:04;;;;;;;;;49.00;40.00;;;;;7.07;66.73;100766.78;5034430;28;45798;-71
2023/03/03 05:46:30;;;;;;;;;50.00;40.25;;;;;6.96;66.68;100755.84;5017555;28;45438;-72
2023/03/03 05:48:56;;;;;;;;;42.25;39.00;;;;;7.07;67.03;100772.84;5026688;28;46113;-72
2023/03/03 05:51:21;;;;;;;;;45.25;38.50;;;;;7.00;67.04;100760.38;5037141;28;45346;-71
2023/03/03 05:53:47;;;;;;;;;48.50;41.50;;;;;7.11;67.14;100779.09;5019106;28;45400;-71
2023/03/03 05:56:12;;;;;;;;;49.50;42.50;;;;;7.03;67.44;100757.06;5038305;28;45563;-72
2023/03/03 05:58:38;;;;;;;;;60.75;49.00;;;;;7.01;67.46;100771.69;5036474;28;46608;-71
2023/03/03 06:01:03;;;;;;;;;49.25;42.75;;;;;7.05;68.25;100782.28;5036263;28;45404;-71
2023/03/03 06:03:29;;;;;;;;;47.75;41.25;;;;;7.06;68.98;100797.06;5034783;28;45271;-71
2023/03/03 06:05:54;;;;;;;;;46.50;41.25;;;;;6.87;69.85;100774.50;5032509;28;45490;-71
2023/03/03 06:08:20;;;;;;;;;47.75;39.00;;;;;6.77;69.94;100772.28;5017290;28;45884;-72
2023/03/03 06:10:45;;;;;;;;;59.75;47.25;;;;;6.77;70.13;100780.94;5016654;28;45273;-72
2023/03/03 06:13:11;;;;;;;;;57.75;47.00;;;;;6.71;70.13;100779.75;5032734;28;45401;-71
2023/03/03 06:15:37;;;;;;;;;58.75;45.75;;;;;6.71;70.06;100779.75;5036898;28;45391;-71
2023/03/03 06:18:02;;;;;;;;;60.75;48.75;;;;;6.60;71.39;100779.22;5034413;28;46437;-72
2023/03/03 06:20:28;;;;;;;;;56.25;45.25;;;;;6.48;70.91;100765.63;5022244;28;45390;-72
2023/03/03 06:22:53;;;;;;;;;53.50;45.00;;;;;6.66;71.15;100796.81;5030164;28;45370;-71
2023/03/03 06:25:19;;;;;;;;;53.00;41.50;;;;;6.67;71.39;100796.00;5028840;28;45480;-71
2023/03/03 06:27:44;;;;;;;;;57.00;45.25;;;;;6.66;71.61;100807.19;5026239;28;48626;-71
2023/03/03 06:30:11;;;;;;;;;58.75;46.50;;;;;6.60;71.65;100791.31;5028034;28;45537;-72
2023/03/03 06:32:37;;;;;;;;;62.50;48.50;;;;;6.63;72.19;100807.94;5034823;28;45453;-72
2023/03/03 06:35:03;;;;;;;;;53.75;43.00;;;;;6.49;71.42;100791.66;5028857;28;45297;-71
2023/03/03 06:37:29;;;;;;;;;51.50;44.25;;;;;6.72;70.54;100815.28;5016951;28;45666;-72
2023/03/03 06:39:54;;;;;;;;;66.25;50.00;;;;;6.63;71.13;100807.94;5036751;28;45228;-71
2023/03/03 06:42:20;;;;;;;;;61.00;44.75;;;;;6.06;71.04;100705.59;5035980;28;45513;-71
2023/03/03 06:44:46;;;;;;;;;61.25;48.50;;;;;6.59;71.63;100797.31;5023109;28;45825;-71
2023/03/03 06:47:11;;;;;;;;;60.50;45.75;;;;;6.73;71.46;100817.06;5026277;28;45374;-71
2023/03/03 06:49:37;;;;;;;;;53.50;45.00;;;;;6.64;72.62;100798.44;5027047;28;45508;-71
2023/03/03 06:52:12;;;;;;;;;113.33;89.33;;;;;6.69;71.94;100805.63;5019426;28;45592;-71
2023/03/03 06:54:37;;;;;;;;;51.25;44.75;;;;;6.82;71.66;100825.28;5024985;28;45541;-71
2023/03/03 06:57:19;;;;;;;;;60.25;47.25;;;;;6.77;72.25;100813.81;5038507;28;46455;-71
2023/03/03 06:59:50;;;;;;;;;63.75;51.25;;;;;6.72;73.29;100817.88;5030441;28;45630;-71
2023/03/03 07:02:17;;;;;;;;;62.75;47.50;;;;;6.62;72.78;100807.84;5030485;28;45475;-71
2023/03/03 07:04:44;;;;;;;;;50.25;42.00;;;;;6.69;71.95;100809.94;5039117;28;45371;-71
2023/03/03 07:07:23;;;;;;;;;64.25;51.00;;;;;6.64;73.13;100801.91;5019610;28;46350;-71
2023/03/03 07:09:53;;;;;;;;;57.75;42.75;;;;;6.69;73.56;100817.75;5028486;28;45631;-72
2023/03/03 07:12:22;;;;;;;;;61.50;47.00;;;;;6.74;73.12;100831.81;5039142;28;45547;-72
2023/03/03 07:14:54;;;;;;;;;53.25;44.50;;;;;6.63;73.82;100814.84;5020763;28;45674;-72
2023/03/03 07:17:23;;;;;;;;;59.25;48.75;;;;;6.69;73.71;100821.22;5018553;28;45531;-70
2023/03/03 07:19:49;;;;;;;;;49.25;42.50;;;;;6.70;73.30;100824.69;5030086;28;45440;-72
2023/03/03 07:22:16;;;;;;;;;55.75;45.00;;;;;6.68;73.94;100831.50;5038925;28;45454;-71
2023/03/03 07:24:44;;;;;;;;;54.25;45.00;;;;;6.69;73.83;100841.09;5038113;28;45497;-71
2023/03/03 07:27:23;;;;;;;;;54.75;42.00;;;;;6.69;74.58;100848.88;5030660;28;47006;-72
2023/03/03 07:29:51;;;;;;;;;48.00;41.25;;;;;6.69;74.33;100854.97;5047666;28;45379;-69
2023/03/03 07:32:38;;;;;;;;;51.75;43.25;;;;;6.73;74.07;100856.03;5022195;28;45478;-71
2023/03/03 07:35:30;;;;;;;;;49.00;42.25;;;;;6.75;74.67;100863.06;5038453;28;45408;-71
2023/03/03 07:37:57;;;;;;;;;50.50;43.00;;;;;6.69;73.85;100854.97;5017432;28;46649;-71
2023/03/03 07:40:41;;;;;;;;;58.75;48.75;;;;;6.80;74.49;100873.66;5022632;28;45399;-71
2023/03/03 07:43:29;;;;;;;;;53.75;43.25;;;;;6.73;74.02;100851.72;5028057;28;45633;-71
2023/03/03 07:46:13;;;;;;;;;51.75;43.25;;;;;6.76;74.55;100870.06;5032443;28;45256;-71
2023/03/03 07:48:41;;;;;;;;;53.75;45.50;;;;;6.64;74.67;100863.31;5018955;28;45486;-71
2023/03/03 07:51:26;;;;;;;;;57.25;48.00;;;;;6.76;74.94;100869.13;5033564;28;45399;-71
2023/03/03 07:54:27;;;;;;;;;56.00;45.00;;;;;6.75;74.48;100877.75;5053780;28;45537;-71
2023/03/03 07:57:13;;;;;;;;;54.75;41.75;;;;;6.83;73.77;100884.22;5038398;28;45537;-71
2023/03/03 08:00:13;;;;;;;;;56.25;43.25;;;;;6.90;74.07;100888.00;5020570;28;46221;-71
2023/03/03 08:02:44;;;;;;;;;49.25;41.25;;;;;6.71;74.42;100857.66;5027954;28;45861;-71
2023/03/03 08:05:30;;;;;;;;;55.75;42.25;;;;;6.86;74.24;100897.34;5021678;28;45517;-71
2023/03/03 08:08:21;;;;;;;;;53.50;42.50;;;;;6.72;74.24;100862.88;5023978;28;45503;-71
2023/03/03 08:10:52;;;;;;;;;56.50;42.75;;;;;6.97;74.14;100895.31;5031051;28;45395;-71
2023/03/03 08:13:23;;;;;;;;;55.25;44.25;;;;;6.92;74.13;100882.09;5035873;28;46030;-71
2023/03/03 08:16:00;;;;;;;;;57.75;45.25;;;;;6.97;74.12;100888.41;5018254;28;46172;-71
2023/03/03 08:18:46;;;;;;;;;55.25;43.25;;;;;6.98;73.87;100889.28;5019012;28;45593;-72
2023/03/03 08:21:15;;;;;;;;;45.00;40.00;;;;;7.00;73.36;100874.66;5033462;28;46428;-72
2023/03/03 08:23:41;;;;;;;;;53.75;41.25;;;;;6.95;73.24;100874.44;5034399;28;45502;-71
2023/03/03 08:26:07;;;;;;;;;55.75;44.00;;;;;7.04;73.43;100892.19;5027526;28;45446;-71
2023/03/03 08:28:33;;;;;;;;;55.75;43.75;;;;;7.17;72.83;100912.75;5018297;28;45284;-71
2023/03/03 08:30:59;;;;;;;;;49.25;43.25;;;;;7.05;73.11;100898.28;5020002;28;46562;-72
2023/03/03 08:33:24;;;;;;;;;58.25;46.50;;;;;7.05;73.65;100909.56;5036640;28;45354;-71
2023/03/03 08:35:50;;;;;;;;;59.75;47.25;;;;;6.93;73.49;100891.66;5037192;28;45493;-71
2023/03/03 08:38:20;;;;;;;;;59.50;47.75;;;;;7.16;73.64;100912.69;5039843;28;45415;-70
2023/03/03 08:40:46;;;;;;;;;57.00;43.00;;;;;7.07;73.35;100901.84;5045404;28;45539;-71
2023/03/03 08:43:16;;;;;;;;;58.00;46.50;;;;;7.20;73.58;100918.94;5029402;28;45790;-71
2023/03/03 08:45:43;;;;;;;;;56.50;45.50;;;;;7.14;73.50;100901.31;5028551;28;45664;-71
2023/03/03 08:48:09;;;;;;;;;57.50;46.25;;;;;7.21;73.51;100928.53;5057788;28;45558;-71
2023/03/03 08:50:35;;;;;;;;;65.00;51.25;;;;;7.12;73.81;100921.13;5045141;28;46107;-71
2023/03/03 08:53:01;;;;;;;;;62.50;47.50;;;;;7.16;74.15;100925.66;5045881;28;45521;-71
2023/03/03 08:55:27;;;;;;;;;57.00;44.25;;;;;7.10;73.07;100926.28;5049842;28;45286;-70
2023/03/03 08:57:52;;;;;;;;;57.25;44.25;;;;;7.17;72.93;100930.06;5046098;28;46061;-70
2023/03/03 09:00:18;;;;;;;;;49.25;42.25;;;;;7.20;72.41;100931.91;5042918;28;46478;-71
2023/03/03 09:02:44;;;;;;;;;58.50;46.50;;;;;7.11;73.15;100932.38;5034011;28;45601;-70
2023/03/03 09:05:10;;;;;;;;;51.00;41.75;;;;;7.06;72.91;100945.13;5039923;28;45603;-71
2023/03/03 09:07:36;;;;;;;;;72.00;56.25;;;;;6.91;73.75;100927.06;5044440;28;45448;-71
2023/03/03 09:10:04;;;;;;;;;41.25;37.75;;;;;7.09;73.43;100947.88;5050102;28;46422;-71
2023/03/03 09:12:35;;;;;;;;;58.25;45.25;;;;;7.04;73.76;100935.47;5029709;28;45519;-71
2023/03/03 09:15:25;;;;;;;;;58.50;42.50;;;;;7.11;74.10;100946.25;5040004;28;45408;-72
2023/03/03 09:17:52;;;;;;;;;56.00;44.25;;;;;7.07;73.82;100926.13;5039877;28;45681;-73
2023/03/03 09:20:40;;;;;;;;;62.75;47.25;;;;;7.23;73.73;100945.97;5021858;28;45642;-71
2023/03/03 09:23:21;;;;;;;;;101.33;88.33;;;;;7.36;73.56;100953.56;5039032;28;45581;-71
2023/03/03 09:25:47;;;;;;;;;81.50;60.00;;;;;7.26;73.72;100935.72;5046490;28;45513;-71
2023/03/03 09:28:29;;;;;;;;;60.50;48.50;;;;;7.37;73.45;100965.72;5045805;28;45483;-71
2023/03/03 09:31:00;;;;;;;;;58.25;45.00;;;;;7.42;73.13;100970.25;5036813;28;45655;-71
2023/03/03 09:33:45;;;;;;;;;57.25;46.25;;;;;7.48;73.48;100963.66;5037461;28;45478;-73
2023/03/03 09:36:23;;;;;;;;;58.25;47.25;;;;;7.52;72.80;100965.59;5021789;28;45391;-72
2023/03/03 09:38:49;;;;;;;;;69.25;54.00;;;;;7.46;72.51;100949.72;5036598;28;45501;-72
2023/03/03 09:41:38;;;;;;;;;66.75;51.25;;;;;7.67;72.06;100967.16;5052810;28;46677;-72
2023/03/03 09:44:32;;;;;;;;;66.00;50.25;;;;;7.67;72.49;100960.25;5033009;28;45636;-72
2023/03/03 09:47:35;;;;;;;;;66.00;53.50;;;;;7.65;72.22;100964.47;5016730;28;45488;-72
2023/03/03 09:50:14;;;;;;;;;68.75;53.50;;;;;7.76;71.35;100962.41;5033222;28;45419;-72
2023/03/03 09:53:06;;;;;;;;;64.75;52.00;;;;;7.75;71.68;100961.50;5021093;28;46146;-72
2023/03/03 09:55:47;;;;;;;;;70.00;53.50;;;;;7.82;71.48;100965.31;5032818;28;46623;-72
2023/03/03 09:58:16;;;;;;;;;81.00;61.00;;;;;7.93;71.35;100958.88;5017085;28;45648;-72
2023/03/03 10:00:44;;;;;;;;;75.00;57.75;;;;;8.02;71.43;100960.13;5028475;28;45544;-72
2023/03/03 10:03:35;;;;;;;;;71.00;57.75;;;;;8.11;70.73;100956.25;5036007;28;45293;-71
2023/03/03 10:06:13;;;;;;;;;71.00;54.50;;;;;8.11;71.03;100930.22;5036296;28;45375;-71
2023/03/03 10:08:55;;;;;;;;;59.50;47.50;;;;;8.32;70.50;100961.56;5023781;28;46239;-72
2023/03/03 10:11:40;;;;;;;;;59.75;48.75;;;;;8.41;70.03;100962.78;5047763;28;45618;-72
2023/03/03 10:14:15;;;;;;;;;57.75;46.75;;;;;8.49;69.87;100961.47;5026112;28;45650;-71
2023/03/03 10:16:49;;;;;;;;;67.00;51.75;;;;;8.43;70.79;100950.78;5021453;28;45501;-72
2023/03/03 10:19:36;;;;;;;;;56.50;45.25;;;;;8.46;70.89;100962.22;5016931;28;45356;-72
2023/03/03 10:22:33;;;;;;;;;57.50;46.50;;;;;8.47;71.32;100960.50;5016311;28;45594;-73
2023/03/03 10:25:24;;;;;;;;;52.25;43.50;;;;;8.42;70.64;100965.50;5033534;28;46230;-73
2023/03/03 10:28:20;;;;;;;;;58.00;45.75;;;;;8.47;70.35;100963.09;5031105;28;45624;-73
2023/03/03 10:30:58;;;;;;;;;50.50;41.75;;;;;8.53;69.48;100965.97;5034072;28;46569;-73
2023/03/03 10:33:45;;;;;;;;;47.00;41.50;;;;;8.59;69.49;100966.25;5016876;28;45526;-72
2023/03/03 10:36:29;;;;;;;;;64.75;51.00;;;;;8.72;68.63;100972.91;5026799;28;45454;-72
2023/03/03 10:39:03;;;;;;;;;60.00;46.75;;;;;8.83;68.61;100970.75;5016178;28;45553;-72
2023/03/03 10:41:34;;;;;;;;;59.50;45.00;;;;;9.00;68.41;100976.72;5020430;28;45375;-73
2023/03/03 10:44:07;;;;;;;;;61.25;45.25;;;;;9.06;66.55;100976.97;5035206;28;45398;-72
2023/03/03 10:46:36;;;;;;;;;54.25;44.75;;;;;8.90;67.04;100984.13;5049909;28;47130;-71
2023/03/03 10:49:17;;;;;;;;;58.75;46.25;;;;;8.83;66.91;100962.94;5033942;28;45429;-72
2023/03/03 10:52:01;;;;;;;;;62.25;49.75;;;;;9.09;67.12;100979.69;5035286;28;45236;-72
2023/03/03 10:55:04;;;;;;;;;59.00;47.25;;;;;9.25;67.27;100979.56;5024461;28;45534;-73
2023/03/03 10:57:51;;;;;;;;;58.00;47.50;;;;;9.47;65.54;100978.72;5033101;28;46199;-72
2023/03/03 11:00:30;;;;;;;;;55.25;45.00;;;;;9.50;66.56;100962.31;5025074;28;45471;-72
2023/03/03 11:02:58;;;;;;;;;61.00;44.00;;;;;9.64;65.83;100973.31;5030869;28;45435;-71
2023/03/03 11:05:40;;;;;;;;;59.75;43.00;;;;;9.80;65.32;100965.25;5014512;28;45408;-72
2023/03/03 11:08:18;;;;;;;;;52.25;43.50;;;;;9.88;65.09;100944.69;5016290;28;45525;-71
2023/03/03 11:11:05;;;;;;;;;50.50;41.50;;;;;10.01;64.44;100957.41;5015710;28;45487;-72
2023/03/03 11:13:46;;;;;;;;;59.00;45.50;;;;;10.06;64.05;100955.84;5015986;28;45296;-73
2023/03/03 11:16:31;;;;;;;;;56.75;47.00;;;;;10.14;63.37;100954.41;5016124;28;45396;-73
2023/03/03 11:19:34;;;;;;;;;59.25;48.00;;;;;10.13;62.92;100960.47;5033639;28;46417;-73
2023/03/03 11:22:03;;;;;;;;;57.25;45.50;;;;;10.07;62.54;100955.03;5035859;28;45840;-73
2023/03/03 11:24:40;;;;;;;;;62.25;49.00;;;;;10.08;62.59;100959.38;5019646;28;45700;-72
2023/03/03 11:27:25;;;;;;;;;61.25;48.25;;;;;9.99;62.59;100966.88;5020743;28;45574;-73
2023/03/03 11:30:02;;;;;;;;;65.00;51.00;;;;;10.03;62.51;100944.41;5035195;28;45640;-73
2023/03/03 11:32:42;;;;;;;;;57.75;46.25;;;;;10.05;62.24;100956.69;5035742;28;46056;-72
2023/03/03 11:35:16;;;;;;;;;130.00;109.75;;;;;9.87;61.78;100928.16;5038995;28;45525;-72
2023/03/03 11:38:03;;;;;;;;;84.50;64.75;;;;;10.14;62.12;100959.63;5038220;28;45370;-73